Time;durP1;ratioP1;P1;durP2;ratioP2;P2;SDS_P1;SDS_P2;PMS_P1;PMS_P2;Temp;Humidity;BMP_temperature;BMP_pressure;BME280_temperature;BME280_humidity;BME280_pressure;Samples;Min_cycle;Max_cycle;Signal;HPM_P1;HPM_P2
2021/05/08 00:01:08;;;;;;;15.25;3.10;;;;;;;;;;143731;621;46915;-81
2021/05/08 00:03:35;;;;;;;6.35;3.05;;;;;;;;;;143733;586;47020;-82
2021/05/08 00:06:05;;;;;;;6.03;2.92;;;;;;;;;;143735;608;46012;-82
2021/05/08 00:08:31;;;;;;;8.93;3.60;;;;;;;;;;143734;618;46022;-81
2021/05/08 00:10:58;;;;;;;9.73;3.10;;;;;;;;;;143732;600;46012;-81
2021/05/08 00:13:24;;;;;;;13.07;3.62;;;;;;;;;;143735;623;46020;-81
2021/05/08 00:15:51;;;;;;;12.30;3.53;;;;;;;;;;143734;606;46013;-82
2021/05/08 00:18:18;;;;;;;7.25;3.05;;;;;;;;;;143732;630;47020;-82
2021/05/08 00:20:44;;;;;;;7.00;3.47;;;;;;;;;;143733;640;46020;-81
2021/05/08 00:23:11;;;;;;;9.45;3.55;;;;;;;;;;143734;637;46046;-81
2021/05/08 00:25:37;;;;;;;9.98;3.55;;;;;;;;;;143734;607;46021;-81
2021/05/08 00:28:04;;;;;;;9.95;3.53;;;;;;;;;;143732;639;46052;-81
2021/05/08 00:30:32;;;;;;;9.70;3.55;;;;;;;;;;143732;589;46021;-82
2021/05/08 00:32:59;;;;;;;5.95;3.08;;;;;;;;;;143733;588;46020;-81
2021/05/08 00:35:25;;;;;;;11.10;3.10;;;;;;;;;;143734;665;46012;-81
2021/05/08 00:37:52;;;;;;;5.72;2.60;;;;;;;;;;143732;553;46022;-82
2021/05/08 00:40:18;;;;;;;13.90;3.35;;;;;;;;;;143732;584;46020;-81
2021/05/08 00:42:45;;;;;;;8.60;2.65;;;;;;;;;;143734;594;46020;-82
2021/05/08 00:45:12;;;;;;;8.45;2.80;;;;;;;;;;143734;604;46013;-81
2021/05/08 00:47:43;;;;;;;7.53;3.40;;;;;;;;;;143732;641;46023;-81
2021/05/08 00:50:11;;;;;;;7.20;3.03;;;;;;;;;;143731;672;46012;-81
2021/05/08 00:52:38;;;;;;;8.77;3.40;;;;;;;;;;143733;649;47019;-81
2021/05/08 00:55:07;;;;;;;16.62;3.17;;;;;;;;;;143736;569;46012;-80
2021/05/08 00:57:35;;;;;;;7.82;2.87;;;;;;;;;;143731;675;47022;-81
2021/05/08 01:00:04;;;;;;;13.43;3.78;;;;;;;;;;143730;635;46013;-81
2021/05/08 01:02:31;;;;;;;18.67;2.80;;;;;;;;;;143733;656;46020;-81
2021/05/08 01:04:58;;;;;;;15.23;3.22;;;;;;;;;;143734;653;47020;-81
2021/05/08 01:07:25;;;;;;;10.07;3.33;;;;;;;;;;143735;622;46021;-81
2021/05/08 01:09:52;;;;;;;7.60;3.00;;;;;;;;;;143734;619;46020;-81
2021/05/08 01:12:18;;;;;;;11.05;2.53;;;;;;;;;;143734;566;46020;-80
2021/05/08 01:14:45;;;;;;;6.40;2.00;;;;;;;;;;143734;569;46013;-82
2021/05/08 01:17:12;;;;;;;9.38;2.80;;;;;;;;;;143732;656;47023;-81
2021/05/08 01:19:39;;;;;;;5.22;3.00;;;;;;;;;;143733;669;46038;-81
2021/05/08 01:22:05;;;;;;;5.72;2.80;;;;;;;;;;143733;643;47020;-81
2021/05/08 01:24:32;;;;;;;9.68;2.65;;;;;;;;;;143733;649;46012;-82
2021/05/08 01:26:58;;;;;;;6.57;3.62;;;;;;;;;;143736;585;46022;-82
2021/05/08 01:29:25;;;;;;;6.40;3.17;;;;;;;;;;143732;655;46012;-82
2021/05/08 01:31:51;;;;;;;7.00;3.45;;;;;;;;;;143733;683;46021;-82
2021/05/08 01:34:18;;;;;;;11.38;3.33;;;;;;;;;;143734;644;46012;-82
2021/05/08 01:36:45;;;;;;;12.27;3.33;;;;;;;;;;143732;569;46021;-81
2021/05/08 01:39:11;;;;;;;6.05;3.25;;;;;;;;;;143732;677;46012;-82
2021/05/08 01:41:38;;;;;;;14.48;4.07;;;;;;;;;;143730;610;47014;-81
2021/05/08 01:44:08;;;;;;;15.23;3.75;;;;;;;;;;143734;592;46013;-82
2021/05/08 01:46:36;;;;;;;9.10;2.72;;;;;;;;;;143731;677;47023;-81
2021/05/08 01:49:03;;;;;;;4.37;2.08;;;;;;;;;;143733;609;46020;-82
2021/05/08 01:51:30;;;;;;;7.55;2.65;;;;;;;;;;143734;585;46021;-83
2021/05/08 01:53:56;;;;;;;7.20;2.75;;;;;;;;;;143734;590;46012;-82
2021/05/08 01:56:23;;;;;;;5.72;2.33;;;;;;;;;;143734;574;46022;-81
2021/05/08 01:58:50;;;;;;;12.80;2.53;;;;;;;;;;143731;637;46012;-82
2021/05/08 02:01:17;;;;;;;11.05;3.58;;;;;;;;;;143734;653;46033;-81
2021/05/08 02:03:43;;;;;;;13.00;3.72;;;;;;;;;;143736;586;46020;-82
2021/05/08 02:06:10;;;;;;;12.50;3.00;;;;;;;;;;143732;669;47020;-81
2021/05/08 02:08:37;;;;;;;5.80;3.28;;;;;;;;;;143732;586;46012;-82
2021/05/08 02:11:03;;;;;;;6.72;2.97;;;;;;;;;;143733;618;46020;-82
2021/05/08 02:13:30;;;;;;;5.55;2.72;;;;;;;;;;143734;618;46020;-82
2021/05/08 02:15:57;;;;;;;9.88;3.42;;;;;;;;;;143732;687;46023;-82
2021/05/08 02:18:23;;;;;;;9.60;2.87;;;;;;;;;;143730;590;46012;-81
2021/05/08 02:20:50;;;;;;;7.65;3.78;;;;;;;;;;143733;643;46018;-82
2021/05/08 02:23:18;;;;;;;8.75;2.90;;;;;;;;;;143735;599;46012;-82
2021/05/08 02:25:45;;;;;;;9.40;3.33;;;;;;;;;;143733;623;46020;-81
2021/05/08 02:28:11;;;;;;;7.72;2.95;;;;;;;;;;143732;608;46012;-82
2021/05/08 02:30:40;;;;;;;10.88;3.10;;;;;;;;;;143737;622;46021;-82
2021/05/08 02:33:08;;;;;;;14.73;5.78;;;;;;;;;;143736;570;47018;-81
2021/05/08 02:35:35;;;;;;;18.83;5.57;;;;;;;;;;143731;620;47022;-82
2021/05/08 02:38:03;;;;;;;9.43;5.50;;;;;;;;;;143731;634;46021;-82
2021/05/08 02:40:32;;;;;;;25.23;5.15;;;;;;;;;;143736;661;46020;-81
2021/05/08 02:42:58;;;;;;;22.27;5.20;;;;;;;;;;143736;689;46020;-81
2021/05/08 02:45:25;;;;;;;8.00;3.35;;;;;;;;;;143732;633;47023;-81
2021/05/08 02:47:52;;;;;;;9.63;3.12;;;;;;;;;;143734;673;47020;-81
2021/05/08 02:50:20;;;;;;;8.82;3.40;;;;;;;;;;143733;662;46014;-81
2021/05/08 02:52:46;;;;;;;14.20;4.68;;;;;;;;;;143735;570;46013;-81
2021/05/08 02:55:16;;;;;;;14.25;3.78;;;;;;;;;;143735;618;46022;-81
2021/05/08 02:57:43;;;;;;;11.82;4.35;;;;;;;;;;143732;646;46012;-82
2021/05/08 03:00:12;;;;;;;18.23;4.78;;;;;;;;;;143735;692;46034;-81
2021/05/08 03:02:39;;;;;;;11.27;4.78;;;;;;;;;;143735;595;46018;-82
2021/05/08 03:05:16;;;;;;;13.32;5.10;;;;;;;;;;143732;658;46022;-82
2021/05/08 03:07:43;;;;;;;13.05;5.07;;;;;;;;;;143735;571;45914;-81
2021/05/08 03:10:23;;;;;;;20.80;4.62;;;;;;;;;;143735;569;46020;-81
2021/05/08 03:12:52;;;;;;;12.43;4.90;;;;;;;;;;143735;623;46018;-80
2021/05/08 03:15:37;;;;;;;;;;;;;;;;;;;;;
2021/05/08 03:18:10;;;;;;;13.73;5.65;;;;;;;;;;143734;682;46020;-80
2021/05/08 03:20:37;;;;;;;12.40;5.28;;;;;;;;;;143732;590;47020;-82
2021/05/08 03:23:03;;;;;;;10.13;5.15;;;;;;;;;;143733;576;46013;-82
2021/05/08 03:25:30;;;;;;;12.25;5.57;;;;;;;;;;143732;613;46022;-82
2021/05/08 03:27:57;;;;;;;15.60;4.35;;;;;;;;;;143730;605;46914;-81
2021/05/08 03:30:25;;;;;;;12.95;4.90;;;;;;;;;;143734;718;46021;-81
2021/05/08 03:32:57;;;;;;;10.80;5.03;;;;;;;;;;143739;679;46018;-82
2021/05/08 03:35:37;;;;;;;18.02;5.62;;;;;;;;;;143737;660;46022;-81
2021/05/08 03:38:05;;;;;;;13.60;4.45;;;;;;;;;;143737;586;45914;-82
2021/05/08 03:40:31;;;;;;;15.52;5.00;;;;;;;;;;143734;636;46020;-82
2021/05/08 03:43:07;;;;;;;11.18;4.72;;;;;;;;;;143735;594;46013;-81
2021/05/08 03:45:57;;;;;;;12.48;4.65;;;;;;;;;;143732;643;47023;-81
2021/05/08 03:48:30;;;;;;;14.32;5.72;;;;;;;;;;143732;657;46012;-82
2021/05/08 03:51:02;;;;;;;;;;;;;;;;;;143740;981;46021;-81
2021/05/08 03:53:34;;;;;;;13.20;4.35;;;;;;;;;;143741;607;46020;-81
2021/05/08 03:56:02;;;;;;;19.83;5.05;;;;;;;;;;143733;625;46014;-81
2021/05/08 03:58:30;;;;;;;10.27;5.50;;;;;;;;;;143733;636;46011;-81
2021/05/08 04:00:57;;;;;;;20.20;6.93;;;;;;;;;;143735;602;46020;-81
2021/05/08 04:03:24;;;;;;;15.65;6.25;;;;;;;;;;143735;593;46010;-81
2021/05/08 04:05:51;;;;;;;18.40;6.70;;;;;;;;;;143735;567;46020;-82
2021/05/08 04:08:19;;;;;;;19.98;6.72;;;;;;;;;;143735;586;46020;-82
2021/05/08 04:10:49;;;;;;;12.37;5.78;;;;;;;;;;143734;588;46020;-81
2021/05/08 04:13:16;;;;;;;16.75;5.28;;;;;;;;;;143737;576;46020;-81
2021/05/08 04:15:43;;;;;;;15.82;5.93;;;;;;;;;;143732;668;47023;-82
2021/05/08 04:18:10;;;;;;;17.50;8.30;;;;;;;;;;143733;594;46020;-82
2021/05/08 04:20:37;;;;;;;13.88;5.20;;;;;;;;;;143734;630;46020;-84
2021/05/08 04:23:04;;;;;;;21.42;5.72;;;;;;;;;;143737;614;46020;-82
2021/05/08 04:25:31;;;;;;;16.27;6.53;;;;;;;;;;143734;564;46050;-82
2021/05/08 04:27:58;;;;;;;21.35;7.22;;;;;;;;;;143733;588;46010;-82
2021/05/08 04:30:25;;;;;;;12.52;5.35;;;;;;;;;;143738;612;46012;-82
2021/05/08 04:32:51;;;;;;;14.65;6.25;;;;;;;;;;143737;591;46010;-82
2021/05/08 04:35:18;;;;;;;16.50;5.37;;;;;;;;;;143735;594;46020;-83
2021/05/08 04:37:44;;;;;;;15.60;5.57;;;;;;;;;;143734;575;46010;-82
2021/05/08 04:40:12;;;;;;;18.20;6.40;;;;;;;;;;143735;605;46020;-82
2021/05/08 04:42:38;;;;;;;16.33;5.95;;;;;;;;;;143736;661;46020;-83
2021/05/08 04:45:06;;;;;;;14.85;5.30;;;;;;;;;;143734;638;46021;-83
2021/05/08 04:47:33;;;;;;;18.23;5.95;;;;;;;;;;143733;600;46010;-83
2021/05/08 04:50:01;;;;;;;17.55;5.62;;;;;;;;;;143735;773;46013;-82
2021/05/08 04:52:28;;;;;;;21.45;7.35;;;;;;;;;;143738;606;46010;-83
2021/05/08 04:54:55;;;;;;;11.23;5.85;;;;;;;;;;143733;657;47022;-82
2021/05/08 04:57:21;;;;;;;7.97;5.37;;;;;;;;;;143736;639;46020;-82
2021/05/08 04:59:48;;;;;;;14.82;5.32;;;;;;;;;;143735;658;46021;-82
2021/05/08 05:02:14;;;;;;;17.20;6.22;;;;;;;;;;143736;606;47020;-83
2021/05/08 05:04:41;;;;;;;16.45;4.43;;;;;;;;;;143735;625;46020;-82
2021/05/08 05:07:07;;;;;;;12.90;4.37;;;;;;;;;;143737;591;46021;-81
2021/05/08 05:09:34;;;;;;;13.00;5.07;;;;;;;;;;143735;564;46020;-81
2021/05/08 05:12:01;;;;;;;11.02;5.30;;;;;;;;;;143736;651;46010;-83
2021/05/08 05:14:27;;;;;;;22.13;5.30;;;;;;;;;;143734;564;46013;-83
2021/05/08 05:16:54;;;;;;;11.80;4.93;;;;;;;;;;143734;645;46010;-83
2021/05/08 05:19:21;;;;;;;10.77;4.45;;;;;;;;;;143736;629;46018;-83
2021/05/08 05:21:47;;;;;;;14.43;4.47;;;;;;;;;;143737;649;46010;-82
2021/05/08 05:24:14;;;;;;;12.13;3.92;;;;;;;;;;143734;584;47020;-84
2021/05/08 05:26:41;;;;;;;13.05;4.10;;;;;;;;;;143734;586;46914;-84
2021/05/08 05:29:09;;;;;;;11.12;3.35;;;;;;;;;;143734;576;46012;-84
2021/05/08 05:31:40;;;;;;;14.87;4.37;;;;;;;;;;308062;65;223808;-85
2021/05/08 05:34:07;;;;;;;13.55;3.75;;;;;;;;;;143733;570;47020;-84
2021/05/08 05:36:34;;;;;;;17.17;4.12;;;;;;;;;;143735;581;46012;-85
2021/05/08 05:39:01;;;;;;;10.70;3.45;;;;;;;;;;143735;586;46014;-85
2021/05/08 05:41:28;;;;;;;15.50;3.70;;;;;;;;;;143738;606;46012;-84
2021/05/08 05:43:55;;;;;;;15.60;3.83;;;;;;;;;;143732;623;47021;-85
2021/05/08 05:46:21;;;;;;;13.57;4.03;;;;;;;;;;143735;593;46022;-86
2021/05/08 05:48:48;;;;;;;12.82;3.35;;;;;;;;;;143735;648;46018;-85
2021/05/08 05:51:15;;;;;;;16.45;3.70;;;;;;;;;;143740;570;47023;-85
2021/05/08 05:53:42;;;;;;;13.73;3.50;;;;;;;;;;143734;632;46020;-85
2021/05/08 05:56:09;;;;;;;11.82;3.00;;;;;;;;;;143737;583;46022;-86
2021/05/08 05:58:36;;;;;;;9.93;3.05;;;;;;;;;;143735;628;46019;-84
2021/05/08 06:01:02;;;;;;;9.68;3.35;;;;;;;;;;143737;591;46012;-85
2021/05/08 06:03:29;;;;;;;9.63;3.45;;;;;;;;;;143737;583;46020;-85
2021/05/08 06:05:56;;;;;;;7.53;2.60;;;;;;;;;;143734;612;46013;-85
2021/05/08 06:08:22;;;;;;;12.95;3.33;;;;;;;;;;143736;575;47018;-83
2021/05/08 06:10:49;;;;;;;8.63;2.72;;;;;;;;;;143736;565;46012;-84
2021/05/08 06:13:16;;;;;;;11.70;3.85;;;;;;;;;;143736;627;46020;-84
2021/05/08 06:15:42;;;;;;;6.95;2.92;;;;;;;;;;143733;575;47012;-84
2021/05/08 06:18:09;;;;;;;10.45;3.47;;;;;;;;;;143735;597;46018;-84
2021/05/08 06:20:36;;;;;;;8.30;3.47;;;;;;;;;;143737;571;46020;-84
2021/05/08 06:23:03;;;;;;;11.40;3.35;;;;;;;;;;143735;584;46018;-85
2021/05/08 06:25:29;;;;;;;10.13;2.90;;;;;;;;;;143735;586;46012;-85
2021/05/08 06:27:56;;;;;;;9.55;2.85;;;;;;;;;;143733;589;46019;-86
2021/05/08 06:30:23;;;;;;;8.10;3.50;;;;;;;;;;143738;582;46023;-84
2021/05/08 06:32:49;;;;;;;12.37;4.32;;;;;;;;;;143735;619;46047;-85
2021/05/08 06:35:16;;;;;;;7.55;3.25;;;;;;;;;;143734;581;46013;-85
2021/05/08 06:37:48;;;;;;;8.85;2.80;;;;;;;;;;143737;585;46018;-85
2021/05/08 06:40:15;;;;;;;12.57;3.03;;;;;;;;;;143737;596;46012;-85
2021/05/08 06:42:41;;;;;;;12.77;3.22;;;;;;;;;;143735;602;46019;-84
2021/05/08 06:45:11;;;;;;;7.97;2.87;;;;;;;;;;143732;587;46012;-84
2021/05/08 06:47:39;;;;;;;11.50;4.15;;;;;;;;;;143735;572;46018;-85
2021/05/08 06:50:07;;;;;;;10.32;3.33;;;;;;;;;;143737;583;46013;-84
2021/05/08 06:52:33;;;;;;;10.07;3.40;;;;;;;;;;143733;614;47020;-84
2021/05/08 06:55:00;;;;;;;10.75;3.37;;;;;;;;;;143735;588;46022;-82
2021/05/08 06:57:27;;;;;;;10.77;3.17;;;;;;;;;;143736;579;46019;-82
2021/05/08 06:59:54;;;;;;;12.75;3.25;;;;;;;;;;143737;605;46012;-82
2021/05/08 07:02:20;;;;;;;10.82;2.72;;;;;;;;;;143736;596;46020;-82
2021/05/08 07:04:52;;;;;;;12.00;4.03;;;;;;;;;;143738;616;46023;-83
2021/05/08 07:07:18;;;;;;;10.85;4.97;;;;;;;;;;143735;636;46018;-84
2021/05/08 07:09:45;;;;;;;14.10;4.20;;;;;;;;;;143735;591;46012;-83
2021/05/08 07:12:12;;;;;;;12.60;3.10;;;;;;;;;;143735;593;46015;-84
2021/05/08 07:14:38;;;;;;;17.75;3.58;;;;;;;;;;143732;630;47012;-84
2021/05/08 07:17:05;;;;;;;8.38;3.85;;;;;;;;;;143737;595;46014;-84
2021/05/08 07:19:32;;;;;;;10.20;3.55;;;;;;;;;;143735;600;46013;-83
2021/05/08 07:22:01;;;;;;;19.98;3.30;;;;;;;;;;143733;602;47021;-83
2021/05/08 07:24:27;;;;;;;15.77;7.10;;;;;;;;;;143738;572;46012;-85
2021/05/08 07:26:54;;;;;;;16.35;4.87;;;;;;;;;;143736;641;46021;-83
2021/05/08 07:29:21;;;;;;;13.75;3.10;;;;;;;;;;143736;570;46014;-83
2021/05/08 07:31:47;;;;;;;11.25;3.50;;;;;;;;;;143733;586;47020;-83
2021/05/08 07:34:14;;;;;;;14.10;4.00;;;;;;;;;;143732;597;47023;-83
2021/05/08 07:36:40;;;;;;;7.72;3.28;;;;;;;;;;143736;570;46018;-83
2021/05/08 07:39:07;;;;;;;7.18;2.55;;;;;;;;;;143735;569;47012;-84
2021/05/08 07:41:34;;;;;;;10.15;2.62;;;;;;;;;;143737;633;46019;-83
2021/05/08 07:44:01;;;;;;;8.60;3.25;;;;;;;;;;143736;632;46023;-84
2021/05/08 07:46:30;;;;;;;7.95;2.92;;;;;;;;;;143736;595;46018;-84
2021/05/08 07:48:57;;;;;;;6.07;2.30;;;;;;;;;;143738;570;46022;-84
2021/05/08 07:51:23;;;;;;;12.98;2.47;;;;;;;;;;143734;631;47018;-84
2021/05/08 07:53:50;;;;;;;6.45;2.67;;;;;;;;;;143735;579;46014;-84
2021/05/08 07:56:17;;;;;;;8.32;3.22;;;;;;;;;;143736;564;46018;-84
2021/05/08 07:58:43;;;;;;;21.92;2.87;;;;;;;;;;143736;574;46012;-82
2021/05/08 08:01:10;;;;;;;8.15;3.00;;;;;;;;;;143735;577;46020;-83
2021/05/08 08:03:36;;;;;;;13.75;8.95;;;;;;;;;;143735;611;46012;-84
2021/05/08 08:06:04;;;;;;;16.48;4.95;;;;;;;;;;143736;624;46019;-85
2021/05/08 08:08:31;;;;;;;8.05;3.00;;;;;;;;;;143736;567;46012;-83
2021/05/08 08:10:58;;;;;;;14.82;4.28;;;;;;;;;;143733;565;47018;-83
2021/05/08 08:13:24;;;;;;;13.23;2.95;;;;;;;;;;143734;573;46023;-83
2021/05/08 08:15:51;;;;;;;14.23;3.47;;;;;;;;;;143736;582;46014;-83
2021/05/08 08:18:18;;;;;;;12.23;3.05;;;;;;;;;;143737;587;46012;-84
2021/05/08 08:20:45;;;;;;;16.42;3.95;;;;;;;;;;143734;565;47018;-83
2021/05/08 08:23:11;;;;;;;14.02;3.40;;;;;;;;;;143731;591;46012;-85
2021/05/08 08:25:39;;;;;;;12.05;3.15;;;;;;;;;;143734;642;47018;-84
2021/05/08 08:28:06;;;;;;;8.95;3.00;;;;;;;;;;143739;661;46012;-85
2021/05/08 08:30:33;;;;;;;18.37;4.03;;;;;;;;;;143734;582;47018;-84
2021/05/08 08:33:00;;;;;;;10.77;3.40;;;;;;;;;;143735;643;46012;-82
2021/05/08 08:35:26;;;;;;;13.75;3.58;;;;;;;;;;143737;603;46018;-84
2021/05/08 08:37:53;;;;;;;8.73;3.85;;;;;;;;;;143736;598;46020;-83
2021/05/08 08:40:21;;;;;;;8.27;3.55;;;;;;;;;;143734;566;46020;-84
2021/05/08 08:42:48;;;;;;;13.90;3.83;;;;;;;;;;143735;635;47014;-84
2021/05/08 08:45:15;;;;;;;11.85;4.20;;;;;;;;;;143736;619;46018;-83
2021/05/08 08:47:43;;;;;;;10.68;5.50;;;;;;;;;;143735;639;46012;-84
2021/05/08 08:50:13;;;;;;;8.25;3.33;;;;;;;;;;143735;602;46019;-85
2021/05/08 08:52:40;;;;;;;12.55;3.30;;;;;;;;;;143735;674;46022;-85
2021/05/08 08:55:09;;;;;;;14.18;3.85;;;;;;;;;;143736;571;46018;-84
2021/05/08 08:57:48;;;;;;;7.12;3.00;;;;;;;;;;143737;564;46012;-84
2021/05/08 09:00:16;;;;;;;8.13;2.75;;;;;;;;;;143732;572;47018;-84
2021/05/08 09:02:45;;;;;;;11.60;3.50;;;;;;;;;;143733;613;46012;-83
2021/05/08 09:05:19;;;;;;;11.07;3.70;;;;;;;;;;143736;564;45590;-83
2021/05/08 09:07:50;;;;;;;10.48;3.60;;;;;;;;;;143736;575;46012;-85
2021/05/08 09:10:36;;;;;;;12.93;3.55;;;;;;;;;;143737;633;46020;-84
2021/05/08 09:13:04;;;;;;;6.20;2.35;;;;;;;;;;143733;591;46014;-84
2021/05/08 09:15:40;;;;;;;6.85;2.60;;;;;;;;;;143733;647;47018;-84
2021/05/08 09:18:08;;;;;;;7.03;2.45;;;;;;;;;;143734;644;46022;-83
2021/05/08 09:20:48;;;;;;;9.23;3.00;;;;;;;;;;143736;609;45047;-83
2021/05/08 09:23:40;;;;;;;9.00;2.67;;;;;;;;;;143733;623;46022;-83
2021/05/08 09:26:10;;;;;;;8.02;3.37;;;;;;;;;;143734;626;46018;-83
2021/05/08 09:28:56;;;;;;;7.15;2.37;;;;;;;;;;143736;585;46012;-82
2021/05/08 09:31:23;;;;;;;10.25;2.90;;;;;;;;;;143732;663;46018;-82
2021/05/08 09:33:55;;;;;;;7.35;2.80;;;;;;;;;;143730;616;46036;-83
2021/05/08 09:36:22;;;;;;;;;;;;;;;;;;143741;977;46018;-82
2021/05/08 09:38:48;;;;;;;6.10;2.78;;;;;;;;;;143737;585;46012;-83
2021/05/08 09:41:19;;;;;;;12.98;2.37;;;;;;;;;;143732;608;46048;-83
2021/05/08 09:43:46;;;;;;;25.85;3.20;;;;;;;;;;143733;583;46022;-83
2021/05/08 09:46:25;;;;;;;11.70;3.15;;;;;;;;;;143733;570;46018;-84
2021/05/08 09:49:11;;;;;;;9.98;3.50;;;;;;;;;;143734;570;46011;-83
2021/05/08 09:51:38;;;;;;;7.87;3.00;;;;;;;;;;143732;576;47020;-83
2021/05/08 09:54:15;;;;;;;10.50;3.00;;;;;;;;;;143732;599;46022;-83
2021/05/08 09:56:51;;;;;;;11.63;2.47;;;;;;;;;;143731;598;47019;-84
2021/05/08 09:59:28;;;;;;;6.32;2.30;;;;;;;;;;143734;634;46010;-82
2021/05/08 10:02:14;;;;;;;7.20;2.37;;;;;;;;;;143733;582;46020;-83
2021/05/08 10:04:47;;;;;;;10.48;2.90;;;;;;;;;;143733;597;46023;-83
2021/05/08 10:07:21;;;;;;;6.97;2.22;;;;;;;;;;143734;657;47018;-83
2021/05/08 10:09:50;;;;;;;6.28;1.90;;;;;;;;;;143734;566;46022;-82
2021/05/08 10:12:20;;;;;;;9.88;2.90;;;;;;;;;;143736;576;46021;-83
2021/05/08 10:14:49;;;;;;;8.38;2.08;;;;;;;;;;143731;643;46010;-82
2021/05/08 10:17:19;;;;;;;9.98;2.85;;;;;;;;;;143733;584;46018;-83
2021/05/08 10:19:48;;;;;;;5.70;3.08;;;;;;;;;;143734;592;47020;-82
2021/05/08 10:22:15;;;;;;;14.23;2.80;;;;;;;;;;143730;589;47020;-82
2021/05/08 10:24:44;;;;;;;10.13;2.92;;;;;;;;;;143734;609;46022;-82
2021/05/08 10:27:11;;;;;;;7.75;3.15;;;;;;;;;;143734;569;46019;-82
2021/05/08 10:29:48;;;;;;;8.60;2.40;;;;;;;;;;143735;632;46010;-82
2021/05/08 10:32:19;;;;;;;4.90;2.10;;;;;;;;;;143732;599;46020;-81
2021/05/08 10:35:00;;;;;;;6.65;2.90;;;;;;;;;;143732;585;46012;-81
2021/05/08 10:37:27;;;;;;;8.02;3.28;;;;;;;;;;143734;572;46018;-82
2021/05/08 10:40:20;;;;;;;11.57;2.80;;;;;;;;;;143735;578;46011;-82
2021/05/08 10:42:48;;;;;;;14.43;2.75;;;;;;;;;;143732;620;46018;-83
2021/05/08 10:45:40;;;;;;;6.32;2.40;;;;;;;;;;143734;596;46010;-82
2021/05/08 10:48:08;;;;;;;12.55;3.17;;;;;;;;;;143733;614;46019;-83
2021/05/08 10:50:42;;;;;;;13.73;2.45;;;;;;;;;;143734;592;46010;-81
2021/05/08 10:53:17;;;;;;;5.87;3.12;;;;;;;;;;143732;608;46044;-82
2021/05/08 10:55:58;;;;;;;21.90;2.83;;;;;;;;;;143733;645;46010;-83
2021/05/08 10:58:32;;;;;;;8.27;2.75;;;;;;;;;;143734;581;46018;-82
2021/05/08 11:01:25;;;;;;;13.43;3.22;;;;;;;;;;143735;668;46022;-82
2021/05/08 11:04:11;;;;;;;9.13;2.80;;;;;;;;;;143734;566;46013;-83
2021/05/08 11:06:38;;;;;;;6.18;2.20;;;;;;;;;;143734;590;46022;-82
2021/05/08 11:09:25;;;;;;;27.35;3.25;;;;;;;;;;143734;598;46018;-83
2021/05/08 11:11:52;;;;;;;10.20;3.40;;;;;;;;;;143735;583;47020;-83
2021/05/08 11:14:55;;;;;;;8.70;2.55;;;;;;;;;;143732;577;46020;-82
2021/05/08 11:17:21;;;;;;;8.73;2.37;;;;;;;;;;143733;626;46010;-82
2021/05/08 11:19:48;;;;;;;8.65;2.42;;;;;;;;;;143732;575;46019;-83
2021/05/08 11:22:16;;;;;;;10.63;3.72;;;;;;;;;;143734;632;46010;-82
2021/05/08 11:24:43;;;;;;;10.40;2.30;;;;;;;;;;143731;588;47020;-82
2021/05/08 11:27:25;;;;;;;11.25;2.58;;;;;;;;;;143731;569;46010;-82
2021/05/08 11:29:52;;;;;;;11.93;2.72;;;;;;;;;;143734;654;47039;-83
2021/05/08 11:32:19;;;;;;;7.90;2.70;;;;;;;;;;143730;581;47010;-84
2021/05/08 11:34:45;;;;;;;7.18;2.00;;;;;;;;;;143732;585;47021;-83
2021/05/08 11:37:14;;;;;;;10.15;2.42;;;;;;;;;;143732;625;46022;-82
2021/05/08 11:39:48;;;;;;;7.43;2.65;;;;;;;;;;143735;578;46019;-84
2021/05/08 11:42:20;;;;;;;9.60;2.08;;;;;;;;;;143735;665;46010;-84
2021/05/08 11:45:12;;;;;;;12.70;3.15;;;;;;;;;;143733;622;46012;-83
2021/05/08 11:47:40;;;;;;;10.48;2.78;;;;;;;;;;143731;583;46011;-82
2021/05/08 11:50:11;;;;;;;7.57;2.83;;;;;;;;;;143734;651;46018;-84
2021/05/08 11:52:42;;;;;;;11.88;2.47;;;;;;;;;;143737;600;46010;-83
2021/05/08 11:55:22;;;;;;;9.50;3.03;;;;;;;;;;143732;573;46047;-83
2021/05/08 11:58:00;;;;;;;16.30;3.33;;;;;;;;;;143730;579;46918;-85
2021/05/08 12:00:34;;;;;;;8.50;2.42;;;;;;;;;;143734;638;46018;-83
2021/05/08 12:03:16;;;;;;;11.38;2.33;;;;;;;;;;143735;612;46023;-84
2021/05/08 12:05:48;;;;;;;6.93;2.15;;;;;;;;;;143731;589;47018;-84
2021/05/08 12:08:17;;;;;;;8.40;2.37;;;;;;;;;;143733;603;46010;-84
2021/05/08 12:10:45;;;;;;;8.93;2.20;;;;;;;;;;143734;574;46019;-83
2021/05/08 12:13:12;;;;;;;6.55;2.40;;;;;;;;;;143735;566;46010;-83
2021/05/08 12:15:43;;;;;;;8.00;2.90;;;;;;;;;;143735;844;46018;-84
2021/05/08 12:18:12;;;;;;;9.35;2.53;;;;;;;;;;143731;600;46010;-84
2021/05/08 12:20:45;;;;;;;7.28;2.80;;;;;;;;;;143733;588;46018;-84
2021/05/08 12:23:23;;;;;;;9.98;2.78;;;;;;;;;;143734;589;46022;-84
2021/05/08 12:26:10;;;;;;;11.00;2.33;;;;;;;;;;143732;564;47021;-83
2021/05/08 12:28:41;;;;;;;5.72;2.12;;;;;;;;;;143732;596;46012;-83
2021/05/08 12:31:29;;;;;;;7.05;2.62;;;;;;;;;;143733;582;46018;-83
2021/05/08 12:33:58;;;;;;;9.80;2.45;;;;;;;;;;143735;591;46020;-83
2021/05/08 12:36:26;;;;;;;8.27;2.40;;;;;;;;;;143733;581;46020;-85
2021/05/08 12:38:54;;;;;;;19.23;3.62;;;;;;;;;;143732;592;46010;-84
2021/05/08 12:41:40;;;;;;;7.57;2.10;;;;;;;;;;143735;647;46019;-83
2021/05/08 12:44:09;;;;;;;10.77;2.40;;;;;;;;;;143734;975;46010;-83
2021/05/08 12:47:20;;;;;;;5.97;2.50;;;;;;;;;;143731;584;47020;-83
2021/05/08 12:50:26;;;;;;;16.98;2.60;;;;;;;;;;143733;583;46010;-83
2021/05/08 12:53:03;;;;;;;10.60;3.22;;;;;;;;;;143732;624;47018;-83
2021/05/08 12:55:34;;;;;;;8.02;2.40;;;;;;;;;;143735;592;46010;-84
2021/05/08 12:58:11;;;;;;;6.10;2.12;;;;;;;;;;143733;564;46018;-84
2021/05/08 13:00:40;;;;;;;5.78;2.37;;;;;;;;;;143733;563;46022;-83
2021/05/08 13:03:40;;;;;;;9.32;2.37;;;;;;;;;;143734;770;46019;-84
2021/05/08 13:06:25;;;;;;;7.07;2.55;;;;;;;;;;143733;581;46012;-83
2021/05/08 13:08:53;;;;;;;6.68;2.30;;;;;;;;;;143732;589;46037;-84
2021/05/08 13:11:40;;;;;;;14.87;3.12;;;;;;;;;;143733;630;46010;-82
2021/05/08 13:14:21;;;;;;;6.80;2.00;;;;;;;;;;143734;848;46018;-83
2021/05/08 13:16:49;;;;;;;8.60;2.08;;;;;;;;;;143735;596;47022;-83
2021/05/08 13:19:17;;;;;;;12.82;1.98;;;;;;;;;;143732;836;47021;-83
2021/05/08 13:21:47;;;;;;;8.45;2.08;;;;;;;;;;143733;573;46010;-83
2021/05/08 13:24:14;;;;;;;13.05;2.97;;;;;;;;;;143734;753;46019;-83
2021/05/08 13:26:41;;;;;;;9.02;2.33;;;;;;;;;;143733;596;46012;-85
2021/05/08 13:29:08;;;;;;;9.02;2.20;;;;;;;;;;143733;606;46012;-84
2021/05/08 13:31:35;;;;;;;6.20;2.40;;;;;;;;;;143730;564;46023;-84
2021/05/08 13:34:01;;;;;;;13.13;1.95;;;;;;;;;;143734;595;46019;-85
2021/05/08 13:36:28;;;;;;;9.13;2.28;;;;;;;;;;143734;586;46022;-83
2021/05/08 13:38:54;;;;;;;5.12;1.98;;;;;;;;;;143732;972;47020;-83
2021/05/08 13:41:21;;;;;;;6.50;2.45;;;;;;;;;;143734;637;46010;-85
2021/05/08 13:43:47;;;;;;;7.28;1.83;;;;;;;;;;143735;626;46018;-84
2021/05/08 13:46:14;;;;;;;11.52;2.62;;;;;;;;;;143733;576;47022;-84
2021/05/08 13:48:40;;;;;;;8.57;2.42;;;;;;;;;;143731;587;46021;-84
2021/05/08 13:51:07;;;;;;;8.40;2.37;;;;;;;;;;143735;569;46012;-84
2021/05/08 13:53:34;;;;;;;5.20;1.73;;;;;;;;;;143734;822;46018;-85
2021/05/08 13:56:01;;;;;;;8.98;2.87;;;;;;;;;;143733;570;46012;-84
2021/05/08 13:58:28;;;;;;;9.55;2.33;;;;;;;;;;143732;576;46018;-85
2021/05/08 14:00:54;;;;;;;8.13;2.17;;;;;;;;;;143731;581;46010;-85
2021/05/08 14:03:21;;;;;;;3.58;2.00;;;;;;;;;;143734;588;46018;-83
2021/05/08 14:05:47;;;;;;;10.07;2.03;;;;;;;;;;143735;585;47022;-68
2021/05/08 14:08:14;;;;;;;7.15;1.77;;;;;;;;;;143731;960;47018;-67
2021/05/08 14:10:40;;;;;;;9.90;2.33;;;;;;;;;;143734;639;46010;-68
2021/05/08 14:13:07;;;;;;;9.68;1.95;;;;;;;;;;143737;610;46018;-67
2021/05/08 14:15:33;;;;;;;7.22;1.85;;;;;;;;;;143734;973;46021;-67
2021/05/08 14:18:01;;;;;;;6.62;2.47;;;;;;;;;;143734;846;46035;-68
2021/05/08 14:20:29;;;;;;;5.12;2.70;;;;;;;;;;143732;564;46022;-67
2021/05/08 14:22:57;;;;;;;7.00;2.72;;;;;;;;;;143733;584;46018;-67
2021/05/08 14:25:23;;;;;;;5.95;2.00;;;;;;;;;;143735;608;46010;-68
2021/05/08 14:27:50;;;;;;;14.25;3.30;;;;;;;;;;143734;565;46020;-68
2021/05/08 14:30:17;;;;;;;10.60;1.83;;;;;;;;;;143733;719;46011;-69
2021/05/08 14:32:43;;;;;;;6.78;1.90;;;;;;;;;;143733;638;46018;-68
2021/05/08 14:35:11;;;;;;;7.70;2.10;;;;;;;;;;143732;627;47022;-68
2021/05/08 14:37:38;;;;;;;6.00;2.12;;;;;;;;;;143731;605;47019;-68
2021/05/08 14:40:07;;;;;;;11.90;2.40;;;;;;;;;;143732;600;46010;-67
2021/05/08 14:42:37;;;;;;;8.38;2.47;;;;;;;;;;143735;587;46018;-68
2021/05/08 14:45:04;;;;;;;10.23;2.45;;;;;;;;;;143734;623;46012;-68
2021/05/08 14:47:34;;;;;;;7.30;2.78;;;;;;;;;;143732;633;47021;-68
2021/05/08 14:50:01;;;;;;;7.47;2.05;;;;;;;;;;143735;595;46022;-69
2021/05/08 14:52:27;;;;;;;8.57;2.05;;;;;;;;;;143734;618;46018;-68